Time;durP1;ratioP1;P1;durP2;ratioP2;P2;SDS_P1;SDS_P2;PMS_P1;PMS_P2;Temp;Humidity;BMP_temperature;BMP_pressure;BME280_temperature;BME280_humidity;BME280_pressure;Samples;Min_cycle;Max_cycle;Signal;HPM_P1;HPM_P2
2021/04/18 00:01:46;;;;;;;38.63;16.02;;;6.10;99.90;;;;;;4856613;29;20052;-62
2021/04/18 00:04:12;;;;;;;32.60;15.88;;;6.10;99.90;;;;;;4857614;29;20462;-62
2021/04/18 00:06:39;;;;;;;33.15;15.10;;;6.00;99.90;;;;;;4843742;29;20065;-62
2021/04/18 00:09:08;;;;;;;36.30;14.85;;;6.10;99.90;;;;;;4840640;29;20520;-62
2021/04/18 00:11:34;;;;;;;34.17;15.00;;;6.30;99.90;;;;;;4845929;29;20053;-63
2021/04/18 00:14:01;;;;;;;30.83;15.65;;;6.30;99.90;;;;;;4851406;29;20037;-63
2021/04/18 00:16:28;;;;;;;27.80;14.07;;;6.40;99.90;;;;;;4843900;29;20050;-62
2021/04/18 00:18:55;;;;;;;33.60;14.65;;;6.30;99.90;;;;;;4860372;29;20573;-62
2021/04/18 00:21:21;;;;;;;32.67;14.77;;;6.30;99.90;;;;;;4859435;29;20042;-62
2021/04/18 00:23:48;;;;;;;36.20;15.57;;;6.20;99.90;;;;;;4847039;29;20053;-63
2021/04/18 00:26:15;;;;;;;47.25;19.95;;;6.20;99.90;;;;;;4841755;29;20090;-62
2021/04/18 00:28:41;;;;;;;56.55;23.02;;;6.20;99.90;;;;;;4852506;29;20092;-62
2021/04/18 00:31:08;;;;;;;59.90;25.58;;;6.30;99.90;;;;;;4852113;29;20057;-62
2021/04/18 00:33:35;;;;;;;62.92;25.65;;;6.40;99.90;;;;;;4855096;29;20050;-62
2021/04/18 00:36:03;;;;;;;70.03;26.23;;;6.40;99.90;;;;;;4834246;29;20137;-62
2021/04/18 00:38:29;;;;;;;67.53;27.55;;;6.50;99.90;;;;;;4858440;29;20061;-62
2021/04/18 00:40:56;;;;;;;66.18;25.98;;;6.40;99.90;;;;;;4861710;29;20033;-63
2021/04/18 00:43:22;;;;;;;64.32;25.98;;;6.50;99.90;;;;;;4858899;29;20050;-62
2021/04/18 00:45:49;;;;;;;64.38;27.38;;;6.50;99.90;;;;;;4856583;29;20477;-62
2021/04/18 00:48:15;;;;;;;63.90;25.38;;;6.50;99.90;;;;;;4841775;29;20086;-62
2021/04/18 00:50:42;;;;;;;55.25;22.35;;;6.50;99.90;;;;;;4861575;29;20101;-62
2021/04/18 00:53:09;;;;;;;38.85;17.45;;;6.50;99.90;;;;;;4845984;29;20505;-63
2021/04/18 00:55:38;;;;;;;38.30;16.17;;;6.50;99.90;;;;;;4850568;29;20054;-63
2021/04/18 00:58:06;;;;;;;35.97;15.65;;;6.50;99.90;;;;;;4840399;29;20053;-62
2021/04/18 01:00:34;;;;;;;29.25;13.20;;;6.50;99.90;;;;;;4832893;29;20045;-62
2021/04/18 01:03:02;;;;;;;29.00;13.30;;;6.60;99.90;;;;;;4851405;29;20042;-62
2021/04/18 01:05:34;;;;;;;24.30;11.73;;;6.60;99.90;;;;;;4841210;29;20045;-62
2021/04/18 01:08:02;;;;;;;24.17;11.80;;;6.70;99.90;;;;;;4837574;29;20045;-62
2021/04/18 01:10:29;;;;;;;22.05;10.75;;;6.70;99.90;;;;;;4846822;29;20517;-62
2021/04/18 01:12:56;;;;;;;23.25;10.45;;;6.80;99.90;;;;;;4853473;29;20103;-62
2021/04/18 01:15:22;;;;;;;23.77;10.40;;;6.80;99.90;;;;;;4859000;29;20120;-62
2021/04/18 01:17:49;;;;;;;22.90;10.75;;;6.80;99.90;;;;;;4859898;29;20049;-62
2021/04/18 01:20:20;;;;;;;25.92;11.05;;;6.90;99.90;;;;;;4852669;29;20030;-62
2021/04/18 01:22:49;;;;;;;23.45;10.73;;;6.90;99.90;;;;;;4826640;29;20050;-62
2021/04/18 01:25:50;;;;;;;23.67;10.52;;;6.90;99.90;;;;;;4857603;29;20053;-63
2021/04/18 01:28:18;;;;;;;24.60;10.88;;;7.00;99.90;;;;;;4853933;29;20065;-62
2021/04/18 01:30:45;;;;;;;25.75;11.00;;;7.00;99.90;;;;;;4839116;29;20049;-62
2021/04/18 01:33:11;;;;;;;27.17;10.73;;;7.10;99.90;;;;;;4828267;29;20486;-62
2021/04/18 01:35:38;;;;;;;26.23;11.25;;;7.10;99.90;;;;;;4829744;29;20046;-62
2021/04/18 01:38:10;;;;;;;26.27;12.02;;;7.20;99.90;;;;;;4862752;29;20064;-62
2021/04/18 01:40:37;;;;;;;26.90;12.27;;;7.10;99.90;;;;;;4861630;29;20068;-62
2021/04/18 01:43:04;;;;;;;26.50;11.88;;;7.10;99.90;;;;;;4844213;29;20041;-62
2021/04/18 01:45:31;;;;;;;22.73;10.18;;;7.10;99.90;;;;;;4835743;29;20060;-62
2021/04/18 01:47:59;;;;;;;22.73;11.23;;;7.10;99.90;;;;;;4850029;29;20486;-62
2021/04/18 01:50:27;;;;;;;23.20;10.52;;;7.20;99.90;;;;;;4864894;29;20048;-62
2021/04/18 01:52:53;;;;;;;19.77;9.48;;;7.10;99.90;;;;;;4854254;29;20136;-62
2021/04/18 01:55:20;;;;;;;26.85;11.88;;;7.10;99.90;;;;;;4859637;29;20045;-62
2021/04/18 01:57:49;;;;;;;21.83;10.80;;;7.10;99.90;;;;;;4852611;29;20057;-62
2021/04/18 02:00:27;;;;;;;22.48;10.65;;;7.00;99.90;;;;;;4838001;29;20054;-62
2021/04/18 02:03:00;;;;;;;22.50;11.60;;;7.00;99.90;;;;;;4836055;29;20098;-62
2021/04/18 02:05:35;;;;;;;27.00;11.32;;;6.90;99.90;;;;;;4856260;29;20515;-62
2021/04/18 02:08:04;;;;;;;25.48;11.30;;;6.80;99.90;;;;;;4836065;29;20049;-62
2021/04/18 02:10:32;;;;;;;24.02;10.68;;;6.80;99.90;;;;;;4844929;29;20081;-62
2021/04/18 02:12:59;;;;;;;25.80;11.48;;;6.80;99.90;;;;;;4832404;29;20053;-62
2021/04/18 02:15:39;;;;;;;25.83;11.20;;;6.80;99.90;;;;;;4845060;29;20128;-62
2021/04/18 02:18:06;;;;;;;25.70;11.25;;;6.70;99.90;;;;;;4844577;29;20569;-62
2021/04/18 02:20:34;;;;;;;27.17;12.05;;;6.70;99.90;;;;;;4836321;29;20038;-62
2021/04/18 02:23:01;;;;;;;26.77;12.52;;;6.70;99.90;;;;;;4854882;29;20036;-62
2021/04/18 02:25:28;;;;;;;27.33;11.43;;;6.80;99.90;;;;;;4835395;29;20038;-62
2021/04/18 02:27:55;;;;;;;25.98;11.32;;;6.80;99.90;;;;;;4849239;29;20396;-62
2021/04/18 02:30:29;;;;;;;26.92;12.23;;;6.70;99.90;;;;;;4848080;29;20085;-62
2021/04/18 02:32:57;;;;;;;25.50;12.38;;;6.70;99.90;;;;;;4850372;29;20050;-62
2021/04/18 02:35:23;;;;;;;27.30;12.02;;;6.70;99.90;;;;;;4840602;29;20457;-62
2021/04/18 02:37:51;;;;;;;26.73;11.65;;;6.70;99.90;;;;;;4864910;29;20132;-62
2021/04/18 02:40:19;;;;;;;26.08;11.77;;;6.80;99.90;;;;;;4866160;29;20049;-62
2021/04/18 02:42:47;;;;;;;26.70;11.52;;;6.70;99.90;;;;;;4843315;29;20473;-62
2021/04/18 02:45:16;;;;;;;23.33;11.65;;;6.70;99.90;;;;;;4840329;29;20056;-62
2021/04/18 02:47:45;;;;;;;26.65;11.75;;;6.70;99.90;;;;;;4842992;29;20045;-62
2021/04/18 02:50:14;;;;;;;25.30;11.20;;;6.60;99.90;;;;;;4861220;29;20042;-62
2021/04/18 02:52:41;;;;;;;25.15;11.80;;;6.60;99.90;;;;;;4841581;29;20067;-62
2021/04/18 02:55:08;;;;;;;25.25;11.93;;;6.60;99.90;;;;;;4848059;29;20058;-62
2021/04/18 02:57:49;;;;;;;25.00;11.45;;;6.70;99.90;;;;;;4835536;29;20060;-62
2021/04/18 03:00:16;;;;;;;30.42;12.07;;;6.60;99.90;;;;;;4850592;29;20069;-62
2021/04/18 03:02:43;;;;;;;26.17;11.10;;;6.60;99.90;;;;;;4843554;29;20132;-62
2021/04/18 03:05:11;;;;;;;26.23;11.68;;;6.60;99.90;;;;;;4847600;29;20774;-62
2021/04/18 03:07:42;;;;;;;27.00;11.70;;;6.60;99.90;;;;;;4840167;29;20082;-62
2021/04/18 03:10:11;;;;;;;28.40;11.63;;;6.60;99.90;;;;;;4838317;29;20186;-62
2021/04/18 03:12:39;;;;;;;26.27;11.73;;;6.60;99.90;;;;;;4828824;29;20121;-62
2021/04/18 03:15:07;;;;;;;27.08;11.52;;;6.60;99.90;;;;;;4830675;29;20054;-62
2021/04/18 03:17:38;;;;;;;27.27;11.73;;;6.60;99.90;;;;;;4849030;29;20490;-62
2021/04/18 03:20:10;;;;;;;23.02;10.88;;;6.50;99.90;;;;;;4842491;29;20052;-62
2021/04/18 03:22:39;;;;;;;28.45;12.63;;;6.50;99.90;;;;;;4855575;29;20109;-62
2021/04/18 03:25:09;;;;;;;25.35;11.68;;;6.50;99.90;;;;;;4841482;29;20049;-62
2021/04/18 03:27:36;;;;;;;35.72;14.50;;;6.50;99.90;;;;;;4838025;29;20052;-62
2021/04/18 03:30:06;;;;;;;33.00;15.07;;;6.50;99.90;;;;;;4852929;29;20464;-62
2021/04/18 03:32:41;;;;;;;37.78;15.88;;;6.50;99.90;;;;;;4844916;29;20065;-62
2021/04/18 03:35:09;;;;;;;33.58;15.07;;;6.50;99.90;;;;;;4838922;29;20049;-62
2021/04/18 03:37:35;;;;;;;34.80;14.13;;;6.60;99.90;;;;;;4828158;29;20056;-63
2021/04/18 03:40:04;;;;;;;33.78;13.98;;;6.60;99.90;;;;;;4851904;29;20041;-62
2021/04/18 03:42:31;;;;;;;30.23;12.93;;;6.60;99.90;;;;;;4862648;29;20048;-62
2021/04/18 03:45:07;;;;;;;24.65;12.40;;;6.70;99.90;;;;;;4829027;29;20077;-62
2021/04/18 03:47:34;;;;;;;27.60;12.65;;;6.70;99.90;;;;;;4845116;29;20054;-62
2021/04/18 03:50:08;;;;;;;29.10;13.75;;;6.70;99.90;;;;;;4841390;29;20528;-62
2021/04/18 03:52:57;;;;;;;32.95;13.65;;;6.70;99.90;;;;;;4846914;29;20110;-62
2021/04/18 03:55:26;;;;;;;29.40;13.73;;;6.70;99.90;;;;;;4835943;29;20821;-63
2021/04/18 03:57:54;;;;;;;31.75;13.88;;;6.80;99.90;;;;;;4860663;29;20048;-62
2021/04/18 04:00:23;;;;;;;30.35;13.77;;;6.80;99.90;;;;;;4832390;29;20477;-62
2021/04/18 04:02:58;;;;;;;29.50;13.23;;;6.80;99.90;;;;;;4842870;29;20045;-62
2021/04/18 04:05:26;;;;;;;26.30;12.50;;;6.80;99.90;;;;;;4840807;29;20077;-62
2021/04/18 04:07:54;;;;;;;30.33;13.32;;;6.90;99.90;;;;;;4857210;29;20393;-62
2021/04/18 04:10:22;;;;;;;30.05;13.80;;;6.80;99.90;;;;;;4837453;29;20049;-62
2021/04/18 04:12:51;;;;;;;32.42;13.20;;;6.90;99.90;;;;;;4844634;29;20152;-62
2021/04/18 04:15:18;;;;;;;28.30;12.63;;;6.90;99.90;;;;;;4840766;29;20058;-62
2021/04/18 04:17:48;;;;;;;27.73;12.98;;;6.90;99.90;;;;;;4838847;29;20045;-62
2021/04/18 04:20:25;;;;;;;29.20;13.15;;;6.90;99.90;;;;;;4843853;29;20111;-62
2021/04/18 04:23:12;;;;;;;29.75;13.43;;;6.90;99.90;;;;;;4861003;29;20040;-62
2021/04/18 04:25:38;;;;;;;29.90;14.43;;;7.00;99.90;;;;;;4837268;29;20057;-62
2021/04/18 04:28:07;;;;;;;30.90;14.07;;;7.00;99.90;;;;;;4863023;29;20086;-62
2021/04/18 04:30:37;;;;;;;29.98;13.95;;;7.00;99.90;;;;;;4830359;29;20064;-62
2021/04/18 04:33:03;;;;;;;29.13;13.63;;;7.00;99.90;;;;;;4837131;29;20053;-62
2021/04/18 04:35:30;;;;;;;30.30;14.90;;;7.00;99.90;;;;;;4855626;29;20058;-62
2021/04/18 04:37:58;;;;;;;29.58;14.60;;;7.00;99.90;;;;;;4840119;29;22045;-62
2021/04/18 04:40:25;;;;;;;31.80;14.05;;;7.00;99.90;;;;;;4856925;29;20557;-62
2021/04/18 04:42:52;;;;;;;37.20;15.00;;;7.10;99.90;;;;;;4837977;29;20784;-62
2021/04/18 04:45:20;;;;;;;29.77;13.52;;;7.20;99.90;;;;;;4858903;29;20094;-62
2021/04/18 04:47:46;;;;;;;31.35;13.52;;;7.30;99.90;;;;;;4864090;29;20041;-62
2021/04/18 04:50:13;;;;;;;32.72;14.18;;;7.30;99.90;;;;;;4852593;29;20033;-62
2021/04/18 04:52:40;;;;;;;35.35;15.27;;;7.30;99.90;;;;;;4839343;29;20057;-62
2021/04/18 04:55:07;;;;;;;34.28;15.07;;;7.20;99.90;;;;;;4846945;29;20171;-62
2021/04/18 04:57:33;;;;;;;31.02;14.10;;;7.40;99.90;;;;;;4854834;29;20054;-62
2021/04/18 05:00:00;;;;;;;26.80;13.65;;;7.30;99.90;;;;;;4835143;29;20054;-62
2021/04/18 05:02:27;;;;;;;30.33;14.13;;;7.40;99.90;;;;;;4855178;29;20069;-62
2021/04/18 05:04:53;;;;;;;32.17;14.75;;;7.50;99.90;;;;;;4869780;29;20045;-62
2021/04/18 05:07:20;;;;;;;33.13;14.88;;;7.50;99.90;;;;;;4852387;29;20097;-62
2021/04/18 05:09:46;;;;;;;29.42;14.20;;;7.60;99.90;;;;;;4842969;29;20053;-63
2021/04/18 05:12:13;;;;;;;30.98;15.35;;;7.60;99.90;;;;;;4859859;29;20049;-63
2021/04/18 05:14:40;;;;;;;31.83;13.40;;;7.60;99.90;;;;;;4858172;29;20063;-62
2021/04/18 05:17:06;;;;;;;32.70;15.27;;;7.60;99.90;;;;;;4861387;29;20057;-63
2021/04/18 05:19:33;;;;;;;35.78;15.93;;;7.60;99.90;;;;;;4835754;29;20057;-63
2021/04/18 05:21:59;;;;;;;37.67;17.60;;;7.60;99.90;;;;;;4861692;29;20105;-62
2021/04/18 05:24:26;;;;;;;37.78;17.45;;;7.70;99.90;;;;;;4860856;29;20052;-63
2021/04/18 05:26:52;;;;;;;36.17;16.90;;;7.70;99.90;;;;;;4862846;29;20042;-62
2021/04/18 05:29:19;;;;;;;33.78;16.13;;;7.80;99.90;;;;;;4854235;29;20054;-62
2021/04/18 05:31:46;;;;;;;35.17;16.08;;;7.90;99.90;;;;;;4861101;29;20509;-62
2021/04/18 05:34:13;;;;;;;27.77;14.50;;;7.90;99.90;;;;;;4855750;29;20073;-62
2021/04/18 05:36:40;;;;;;;30.08;14.07;;;7.90;99.90;;;;;;4861749;29;20117;-62
2021/04/18 05:39:08;;;;;;;30.67;13.65;;;7.90;99.90;;;;;;4862152;29;20136;-62
2021/04/18 05:41:36;;;;;;;25.77;12.60;;;7.90;99.90;;;;;;4863009;29;20044;-62
2021/04/18 05:44:04;;;;;;;28.10;13.73;;;8.10;99.90;;;;;;4856277;29;20049;-62
2021/04/18 05:46:31;;;;;;;26.83;13.23;;;8.10;99.90;;;;;;4837720;29;20061;-62
2021/04/18 05:48:58;;;;;;;29.90;14.65;;;8.20;99.90;;;;;;4833072;29;20053;-62
2021/04/18 05:51:24;;;;;;;29.00;13.82;;;8.20;99.90;;;;;;4853405;29;20133;-62
2021/04/18 05:53:52;;;;;;;27.45;13.15;;;8.30;99.90;;;;;;4837624;29;20058;-62
2021/04/18 05:56:19;;;;;;;31.02;14.70;;;8.30;99.90;;;;;;4862416;29;20458;-62
2021/04/18 05:58:45;;;;;;;24.83;12.20;;;8.40;99.90;;;;;;4859319;29;20405;-62
2021/04/18 06:01:12;;;;;;;29.67;13.38;;;8.40;99.90;;;;;;4842613;29;20485;-62
2021/04/18 06:03:39;;;;;;;27.80;12.48;;;8.50;99.90;;;;;;4836774;29;20125;-62
2021/04/18 06:06:06;;;;;;;26.27;13.15;;;8.60;99.90;;;;;;4851100;29;20124;-62
2021/04/18 06:08:33;;;;;;;30.25;13.82;;;8.60;99.90;;;;;;4851253;29;20037;-62
2021/04/18 06:10:59;;;;;;;29.70;13.95;;;8.60;99.90;;;;;;4830666;29;20565;-62
2021/04/18 06:13:26;;;;;;;27.73;13.30;;;8.70;99.90;;;;;;4851427;29;20054;-62
2021/04/18 06:15:53;;;;;;;27.27;13.30;;;8.70;99.90;;;;;;4853445;29;20397;-62
2021/04/18 06:18:20;;;;;;;29.05;13.90;;;8.80;99.90;;;;;;4850654;29;20105;-62
2021/04/18 06:20:47;;;;;;;29.67;13.57;;;8.80;99.90;;;;;;4850705;29;20497;-62
2021/04/18 06:23:13;;;;;;;24.35;12.77;;;9.00;99.90;;;;;;4838504;29;20042;-62
2021/04/18 06:25:40;;;;;;;27.25;12.35;;;8.90;99.90;;;;;;4844678;29;20042;-62
2021/04/18 06:28:06;;;;;;;31.48;13.88;;;9.00;99.90;;;;;;4856430;29;20046;-62
2021/04/18 06:30:33;;;;;;;28.08;12.35;;;9.00;99.90;;;;;;4861956;29;20105;-62
2021/04/18 06:32:59;;;;;;;27.25;12.65;;;9.00;99.90;;;;;;4858823;29;20045;-62
2021/04/18 06:35:26;;;;;;;28.75;12.70;;;9.10;99.90;;;;;;4849211;29;20057;-62
2021/04/18 06:37:53;;;;;;;26.23;11.23;;;9.20;99.90;;;;;;4853673;29;20061;-62
2021/04/18 06:40:19;;;;;;;26.67;12.95;;;9.20;99.90;;;;;;4830841;29;20600;-62
2021/04/18 06:42:46;;;;;;;26.27;13.00;;;9.20;99.90;;;;;;4851754;29;20050;-62
2021/04/18 06:45:13;;;;;;;26.63;12.30;;;9.30;99.50;;;;;;4835728;29;20398;-62
2021/04/18 06:47:44;;;;;;;25.27;12.05;;;9.30;99.00;;;;;;4858620;29;20449;-62
2021/04/18 06:50:12;;;;;;;26.92;12.50;;;9.40;98.60;;;;;;4849562;29;20121;-62
2021/04/18 06:52:39;;;;;;;24.98;12.10;;;9.50;98.70;;;;;;4857178;29;20047;-62
2021/04/18 06:55:07;;;;;;;26.08;11.88;;;9.50;98.40;;;;;;4836406;29;20567;-62
2021/04/18 06:57:34;;;;;;;22.20;11.07;;;9.50;98.60;;;;;;4828828;29;20053;-62
2021/04/18 07:00:02;;;;;;;27.48;11.30;;;9.60;98.10;;;;;;4835927;29;20060;-62
2021/04/18 07:02:31;;;;;;;22.75;11.48;;;9.60;98.10;;;;;;4836263;29;20408;-62
2021/04/18 07:05:08;;;;;;;23.05;11.25;;;9.70;97.60;;;;;;4843733;29;20623;-63
2021/04/18 07:07:40;;;;;;;23.67;11.18;;;9.70;97.70;;;;;;4852224;29;20046;-63
2021/04/18 07:10:13;;;;;;;23.48;10.65;;;9.80;96.90;;;;;;4829136;29;20081;-63
2021/04/18 07:12:41;;;;;;;22.85;11.57;;;9.80;97.00;;;;;;4840236;29;20045;-62
2021/04/18 07:15:08;;;;;;;25.05;11.38;;;9.90;97.00;;;;;;4847944;29;20050;-62
2021/04/18 07:17:47;;;;;;;24.75;11.52;;;9.80;97.30;;;;;;4849480;29;20071;-62
2021/04/18 07:20:16;;;;;;;23.55;11.18;;;9.90;97.30;;;;;;4845997;29;20041;-62
2021/04/18 07:22:43;;;;;;;23.95;11.90;;;9.90;97.40;;;;;;4854812;29;20053;-63
2021/04/18 07:25:10;;;;;;;25.17;11.77;;;10.00;96.70;;;;;;4852146;29;20621;-62
2021/04/18 07:27:52;;;;;;;23.27;11.45;;;10.10;96.20;;;;;;4852035;29;20715;-63
2021/04/18 07:30:25;;;;;;;24.85;11.13;;;10.10;95.90;;;;;;4847240;29;20579;-63
2021/04/18 07:33:06;;;;;;;26.58;12.75;;;10.20;96.40;;;;;;4857519;29;20486;-63
2021/04/18 07:35:41;;;;;;;24.83;11.30;;;10.20;95.90;;;;;;4839062;29;20046;-63
2021/04/18 07:38:25;;;;;;;22.85;11.15;;;10.20;95.90;;;;;;4848030;29;20076;-63
2021/04/18 07:40:55;;;;;;;22.30;10.98;;;10.30;95.50;;;;;;4828187;29;20100;-62
2021/04/18 07:43:22;;;;;;;25.92;11.75;;;10.40;95.80;;;;;;4834564;29;20046;-62
2021/04/18 07:45:50;;;;;;;25.35;12.20;;;10.40;95.20;;;;;;4845049;29;20046;-62
2021/04/18 07:48:18;;;;;;;24.38;11.48;;;10.40;95.00;;;;;;4851765;29;20453;-62
2021/04/18 07:50:48;;;;;;;25.30;11.48;;;10.50;94.40;;;;;;4845109;29;20054;-63
2021/04/18 07:53:18;;;;;;;25.23;11.45;;;10.50;94.60;;;;;;4853905;29;20413;-62
2021/04/18 07:55:45;;;;;;;22.63;11.27;;;10.50;93.90;;;;;;4851688;29;20356;-62
2021/04/18 07:58:12;;;;;;;19.08;9.57;;;10.60;94.40;;;;;;4855066;29;20054;-63
2021/04/18 08:00:39;;;;;;;23.40;9.75;;;10.60;94.10;;;;;;4851838;29;20053;-63
2021/04/18 08:03:06;;;;;;;19.27;8.98;;;10.60;94.20;;;;;;4861273;29;20053;-63
2021/04/18 08:05:34;;;;;;;19.23;9.50;;;10.60;93.50;;;;;;4839334;29;20044;-63
2021/04/18 08:08:13;;;;;;;18.95;9.43;;;10.60;94.40;;;;;;4854745;29;20469;-63
2021/04/18 08:10:52;;;;;;;19.38;8.50;;;10.60;94.10;;;;;;4832530;29;20060;-63
2021/04/18 08:13:21;;;;;;;16.92;7.90;;;10.60;93.20;;;;;;4855524;29;20057;-63
2021/04/18 08:15:54;;;;;;;17.83;7.50;;;10.60;92.90;;;;;;4854773;29;20454;-63
2021/04/18 08:18:34;;;;;;;30.48;11.38;;;10.60;93.10;;;;;;4839835;29;20072;-63
2021/04/18 08:21:04;;;;;;;15.23;6.13;;;10.70;93.00;;;;;;4838755;29;20061;-63
2021/04/18 08:23:40;;;;;;;12.70;6.15;;;10.70;90.40;;;;;;4851768;29;20053;-63
2021/04/18 08:26:13;;;;;;;10.82;5.38;;;10.70;90.30;;;;;;4836949;29;20057;-63
2021/04/18 08:28:54;;;;;;;14.02;4.90;;;10.70;89.50;;;;;;4838940;29;20389;-62
2021/04/18 08:31:33;;;;;;;13.30;5.60;;;10.70;89.60;;;;;;4857950;29;20106;-62
2021/04/18 08:34:03;;;;;;;8.82;4.30;;;10.80;89.40;;;;;;4848275;29;20598;-62
2021/04/18 08:36:34;;;;;;;10.23;4.78;;;10.80;87.00;;;;;;4858499;29;20049;-62
2021/04/18 08:39:01;;;;;;;14.00;5.88;;;10.80;87.20;;;;;;4840932;29;20050;-62
2021/04/18 08:41:41;;;;;;;12.65;5.38;;;10.90;89.00;;;;;;4836508;29;20046;-62
2021/04/18 08:44:23;;;;;;;11.88;5.65;;;11.00;88.70;;;;;;4856620;29;20056;-62
2021/04/18 08:46:54;;;;;;;13.10;5.15;;;11.00;87.90;;;;;;4832726;29;20050;-64
2021/04/18 08:49:31;;;;;;;10.25;5.18;;;11.00;86.30;;;;;;4857201;29;20060;-65
2021/04/18 08:52:00;;;;;;;14.43;5.53;;;11.00;85.80;;;;;;4852282;29;20049;-65
2021/04/18 08:54:29;;;;;;;22.98;6.03;;;11.10;85.30;;;;;;4854717;29;20648;-65
2021/04/18 08:56:59;;;;;;;18.98;6.07;;;11.20;85.10;;;;;;4823394;29;20132;-64
2021/04/18 08:59:26;;;;;;;12.07;5.63;;;11.30;84.80;;;;;;4842876;29;20053;-64
2021/04/18 09:02:03;;;;;;;11.65;6.03;;;11.40;83.50;;;;;;4851335;29;20041;-64
2021/04/18 09:04:38;;;;;;;14.93;5.82;;;11.60;84.00;;;;;;4846849;29;20057;-65
2021/04/18 09:07:07;;;;;;;10.30;4.65;;;11.80;82.00;;;;;;4854044;29;20493;-65
2021/04/18 09:09:36;;;;;;;7.43;4.18;;;11.90;81.70;;;;;;4847239;29;20065;-65
2021/04/18 09:12:03;;;;;;;11.30;4.63;;;12.10;81.20;;;;;;4845057;29;20400;-64
2021/04/18 09:14:40;;;;;;;9.20;4.35;;;12.20;80.90;;;;;;4850820;29;20052;-64
2021/04/18 09:17:14;;;;;;;9.27;4.28;;;12.40;78.60;;;;;;4852646;29;20057;-65
2021/04/18 09:20:04;;;;;;;10.80;4.50;;;12.50;79.40;;;;;;4837929;29;20061;-65
2021/04/18 09:22:32;;;;;;;7.82;3.60;;;12.60;77.10;;;;;;4849779;29;20041;-64
2021/04/18 09:25:17;;;;;;;10.23;4.50;;;12.60;78.90;;;;;;4831032;29;20091;-65
2021/04/18 09:27:48;;;;;;;10.13;4.70;;;12.80;77.00;;;;;;4831797;29;20045;-65
2021/04/18 09:30:24;;;;;;;8.50;4.55;;;12.80;75.80;;;;;;4846928;29;20052;-65
2021/04/18 09:32:55;;;;;;;13.43;5.03;;;12.90;74.30;;;;;;4847850;29;20119;-65
2021/04/18 09:35:23;;;;;;;18.67;7.15;;;12.80;74.50;;;;;;4842310;29;20046;-65
2021/04/18 09:38:03;;;;;;;18.00;7.13;;;12.80;76.20;;;;;;4824720;29;20054;-66
2021/04/18 09:40:31;;;;;;;14.18;6.00;;;12.80;75.20;;;;;;4849283;29;20140;-66
2021/04/18 09:43:00;;;;;;;15.30;7.05;;;12.90;76.40;;;;;;4847166;29;20057;-65
2021/04/18 09:45:28;;;;;;;17.00;7.18;;;12.90;73.50;;;;;;4845631;29;20034;-65
2021/04/18 09:47:57;;;;;;;11.40;5.70;;;12.80;75.10;;;;;;4831350;29;20061;-65
2021/04/18 09:50:34;;;;;;;8.15;3.85;;;12.80;73.10;;;;;;4839775;29;20064;-65
2021/04/18 09:53:14;;;;;;;9.80;4.53;;;12.80;73.80;;;;;;4846395;29;20398;-65
2021/04/18 09:56:14;;;;;;;8.80;3.95;;;12.80;74.00;;;;;;4849471;29;20057;-65
2021/04/18 09:58:42;;;;;;;8.68;4.18;;;12.70;73.70;;;;;;4747124;30;20055;-66
2021/04/18 10:01:25;;;;;;;10.50;4.93;;;12.80;74.90;;;;;;4760156;30;20056;-66
2021/04/18 10:03:53;;;;;;;8.80;4.40;;;12.80;74.60;;;;;;4767003;30;20048;-65
2021/04/18 10:06:20;;;;;;;8.00;4.00;;;12.80;73.30;;;;;;4754286;30;21127;-65
2021/04/18 10:08:57;;;;;;;8.10;4.22;;;12.90;74.80;;;;;;4761402;30;20060;-65
2021/04/18 10:11:24;;;;;;;7.28;3.95;;;12.90;73.80;;;;;;4761211;30;20711;-65
2021/04/18 10:13:58;;;;;;;9.70;5.10;;;12.90;72.40;;;;;;4757574;30;20095;-65
2021/04/18 10:16:36;;;;;;;10.48;4.85;;;13.00;73.40;;;;;;4760555;30;20646;-65
2021/04/18 10:19:17;;;;;;;11.98;5.15;;;13.00;73.80;;;;;;4761380;30;20534;-66
2021/04/18 10:22:04;;;;;;;8.63;4.32;;;13.10;73.90;;;;;;4760320;30;20151;-66
2021/04/18 10:24:47;;;;;;;10.88;5.28;;;13.20;73.10;;;;;;4762149;30;20051;-66
2021/04/18 10:27:14;;;;;;;;;;;13.30;72.20;;;;;;4762506;30;20068;-66
2021/04/18 10:29:43;;;;;;;8.60;3.88;;;13.40;72.80;;;;;;4763006;30;20349;-66
2021/04/18 10:32:14;;;;;;;8.25;4.00;;;13.50;70.50;;;;;;4759290;30;20614;-65
2021/04/18 10:34:41;;;;;;;7.95;3.70;;;13.60;70.00;;;;;;4818677;29;20152;-65
2021/04/18 10:37:08;;;;;;;9.55;4.53;;;13.60;68.70;;;;;;4840143;29;20061;-65
2021/04/18 10:39:35;;;;;;;10.10;4.32;;;13.60;70.00;;;;;;4848613;29;20057;-66
2021/04/18 10:42:02;;;;;;;7.80;4.03;;;13.60;69.80;;;;;;4844840;29;20100;-65
2021/04/18 10:44:29;;;;;;;9.57;4.80;;;13.60;69.90;;;;;;4850933;29;20044;-65
2021/04/18 10:47:01;;;;;;;9.85;3.88;;;13.50;69.90;;;;;;4843988;29;20050;-65
2021/04/18 10:49:28;;;;;;;7.50;4.15;;;13.50;70.80;;;;;;4848189;29;20045;-65
2021/04/18 10:51:58;;;;;;;9.30;5.50;;;13.50;70.80;;;;;;4845054;29;20484;-66
2021/04/18 10:54:26;;;;;;;11.40;4.35;;;13.40;72.40;;;;;;4846351;29;20585;-65
2021/04/18 10:56:53;;;;;;;9.23;4.43;;;13.40;73.40;;;;;;4836780;29;20049;-66
2021/04/18 10:59:21;;;;;;;8.02;4.30;;;13.30;74.10;;;;;;4829238;29;20054;-65
2021/04/18 11:01:49;;;;;;;8.93;4.40;;;13.20;73.70;;;;;;4846334;29;20075;-65
2021/04/18 11:04:16;;;;;;;7.20;3.83;;;13.00;76.10;;;;;;4847612;29;20057;-65
2021/04/18 11:06:43;;;;;;;8.27;4.00;;;13.00;75.80;;;;;;4845280;29;20092;-65
2021/04/18 11:09:10;;;;;;;8.95;4.53;;;13.00;74.80;;;;;;4843821;29;20137;-65
2021/04/18 11:11:37;;;;;;;9.65;4.30;;;12.90;77.60;;;;;;4853006;29;20057;-65
2021/04/18 11:14:05;;;;;;;9.32;4.57;;;12.80;79.20;;;;;;4838291;29;20052;-66
2021/04/18 11:16:33;;;;;;;8.27;3.83;;;12.70;78.40;;;;;;4845608;29;20157;-65
2021/04/18 11:19:00;;;;;;;10.18;4.68;;;12.60;80.00;;;;;;4845620;29;20046;-65
2021/04/18 11:21:27;;;;;;;9.57;4.53;;;12.60;80.60;;;;;;4839754;29;20042;-65
2021/04/18 11:23:55;;;;;;;8.90;4.03;;;12.50;79.60;;;;;;4842105;29;20034;-65
2021/04/18 11:26:23;;;;;;;11.18;5.13;;;12.50;77.90;;;;;;4815837;29;20485;-65
2021/04/18 11:28:51;;;;;;;10.50;5.22;;;12.40;80.30;;;;;;4843812;29;20038;-65
2021/04/18 11:31:18;;;;;;;11.55;5.53;;;12.40;80.20;;;;;;4843400;29;20046;-67
2021/04/18 11:33:45;;;;;;;12.55;4.93;;;12.30;80.20;;;;;;4825075;29;20454;-66
2021/04/18 11:36:15;;;;;;;11.65;4.95;;;12.40;79.70;;;;;;4834782;29;20056;-66
2021/04/18 11:38:42;;;;;;;11.25;5.40;;;12.30;79.80;;;;;;4846898;29;20065;-66
2021/04/18 11:41:09;;;;;;;14.10;6.47;;;12.40;81.80;;;;;;4848530;29;20037;-65
2021/04/18 11:43:36;;;;;;;12.10;5.80;;;12.30;81.10;;;;;;4843710;29;20152;-65
2021/04/18 11:46:06;;;;;;;12.98;7.28;;;12.30;82.00;;;;;;4830411;29;20053;-65
2021/04/18 11:48:33;;;;;;;13.75;6.82;;;12.20;84.20;;;;;;4845674;29;20073;-65
2021/04/18 11:51:01;;;;;;;16.08;7.18;;;12.10;84.80;;;;;;4847619;29;20053;-65
2021/04/18 11:53:28;;;;;;;13.48;7.07;;;12.10;87.30;;;;;;4829621;29;20065;-65
2021/04/18 11:55:54;;;;;;;17.58;7.93;;;12.10;89.00;;;;;;4840116;29;20120;-66
2021/04/18 11:58:21;;;;;;;12.75;5.72;;;12.10;90.50;;;;;;4831148;29;20058;-66
2021/04/18 12:00:48;;;;;;;7.63;4.38;;;12.10;89.20;;;;;;4832653;29;20055;-65
2021/04/18 12:03:17;;;;;;;9.75;4.38;;;12.20;89.70;;;;;;4839647;29;20060;-64
2021/04/18 12:05:45;;;;;;;9.02;4.68;;;12.20;88.70;;;;;;4845078;29;20569;-65
2021/04/18 12:08:16;;;;;;;8.15;4.00;;;12.20;90.00;;;;;;4838689;29;20050;-65
2021/04/18 12:10:43;;;;;;;5.53;2.85;;;12.20;88.40;;;;;;4839869;29;20049;-65
2021/04/18 12:13:11;;;;;;;7.53;3.65;;;12.20;86.60;;;;;;4834889;29;20058;-65
2021/04/18 12:15:37;;;;;;;6.28;2.88;;;12.20;86.50;;;;;;4823589;29;20049;-65
2021/04/18 12:18:05;;;;;;;5.55;3.05;;;12.30;84.40;;;;;;4860901;29;20110;-65
2021/04/18 12:20:32;;;;;;;7.78;3.85;;;12.30;83.00;;;;;;4839242;29;20068;-65
2021/04/18 12:22:58;;;;;;;12.30;5.15;;;12.20;83.80;;;;;;4846991;29;20049;-67
2021/04/18 12:25:25;;;;;;;7.25;3.78;;;12.30;86.30;;;;;;4834153;29;20034;-71
2021/04/18 12:27:52;;;;;;;7.65;3.88;;;12.40;86.20;;;;;;4819090;29;20107;-70
2021/04/18 12:30:19;;;;;;;5.82;2.65;;;12.30;86.80;;;;;;4846237;29;20621;-71
2021/04/18 12:32:47;;;;;;;6.97;3.65;;;12.30;90.40;;;;;;4847313;29;20057;-69
2021/04/18 12:35:15;;;;;;;7.38;3.60;;;12.40;90.50;;;;;;4819118;29;20106;-70
2021/04/18 12:37:43;;;;;;;7.43;3.10;;;12.40;87.50;;;;;;4860177;29;20057;-70
2021/04/18 12:40:10;;;;;;;6.78;2.88;;;12.40;85.80;;;;;;4849358;29;20060;-69
2021/04/18 12:42:37;;;;;;;6.43;3.40;;;12.40;86.20;;;;;;4826684;29;20060;-68
2021/04/18 12:45:06;;;;;;;8.63;3.90;;;12.40;86.10;;;;;;4856855;29;20042;-69
2021/04/18 12:47:33;;;;;;;7.75;3.75;;;12.40;85.60;;;;;;4853740;29;20560;-69
2021/04/18 12:50:00;;;;;;;9.27;4.55;;;12.40;87.60;;;;;;4829356;29;20092;-70